createdAt,value
2019-03-09T00:00:03.897Z,14.10
2019-03-09T00:02:34.399Z,13.27
2019-03-09T00:05:05.272Z,12.47
2019-03-09T00:07:35.915Z,12.30
2019-03-09T00:10:07.283Z,13.47
2019-03-09T00:12:37.877Z,13.73
2019-03-09T00:15:08.426Z,13.17
2019-03-09T00:17:38.864Z,13.67
2019-03-09T00:20:09.451Z,11.83
2019-03-09T00:22:41.118Z,12.10
2019-03-09T00:25:23.501Z,10.73
2019-03-09T00:28:00.078Z,11.27
2019-03-09T00:30:41.513Z,11.87
2019-03-09T00:33:11.955Z,12.33
2019-03-09T00:35:42.428Z,12.73
2019-03-09T00:38:16.740Z,12.03
2019-03-09T00:40:47.128Z,12.07
2019-03-09T00:43:17.674Z,12.20
2019-03-09T00:45:48.029Z,11.83
2019-03-09T00:48:18.923Z,11.47
2019-03-09T00:50:49.375Z,12.40
2019-03-09T00:53:19.957Z,12.80
2019-03-09T00:55:50.480Z,13.20
2019-03-09T00:58:20.855Z,13.97
2019-03-09T01:00:51.314Z,15.47
2019-03-09T01:03:21.840Z,13.37
2019-03-09T01:05:52.447Z,12.93
2019-03-09T01:08:22.918Z,12.80
2019-03-09T01:10:53.765Z,13.17
2019-03-09T01:13:24.198Z,13.63
2019-03-09T01:15:54.771Z,14.77
2019-03-09T01:18:25.289Z,14.00
2019-03-09T01:20:55.754Z,12.87
2019-03-09T01:23:26.211Z,13.90
2019-03-09T01:25:56.676Z,14.77
2019-03-09T01:28:27.183Z,15.50
2019-03-09T01:30:57.677Z,13.47
2019-03-09T01:33:28.097Z,14.07
2019-03-09T01:35:58.523Z,15.13
2019-03-09T01:38:29.026Z,14.23
2019-03-09T01:40:59.601Z,14.93
2019-03-09T01:43:30.093Z,13.67
2019-03-09T01:46:00.698Z,14.40
2019-03-09T01:48:31.138Z,18.23
2019-03-09T01:51:01.570Z,19.50
2019-03-09T01:53:36.786Z,16.77
2019-03-09T01:56:04.289Z,17.03
2019-03-09T01:58:34.755Z,17.10
2019-03-09T02:01:05.275Z,15.67
2019-03-09T02:03:35.837Z,15.37
2019-03-09T02:06:06.389Z,15.27
2019-03-09T02:08:37.058Z,14.10
2019-03-09T02:11:07.622Z,15.17
2019-03-09T02:13:38.258Z,15.37
2019-03-09T02:16:08.792Z,15.03
2019-03-09T02:18:39.712Z,16.63
2019-03-09T02:21:10.117Z,15.93
2019-03-09T02:23:40.628Z,14.90
2019-03-09T02:26:10.986Z,14.70
2019-03-09T02:28:41.449Z,14.70
2019-03-09T02:31:12.044Z,15.50
2019-03-09T02:33:42.920Z,15.97
2019-03-09T02:36:13.501Z,15.33
2019-03-09T02:39:02.917Z,16.40
2019-03-09T02:41:33.580Z,15.17
2019-03-09T02:44:04.061Z,16.47
2019-03-09T02:46:34.593Z,15.83
2019-03-09T02:49:05.058Z,15.03
2019-03-09T02:51:35.513Z,15.37
2019-03-09T02:54:06.169Z,14.33
2019-03-09T02:56:36.530Z,14.67
2019-03-09T02:59:07.101Z,14.83
2019-03-09T03:01:56.455Z,14.00
2019-03-09T03:04:27.137Z,13.67
2019-03-09T03:06:57.618Z,14.70
2019-03-09T03:09:28.181Z,14.13
2019-03-09T03:11:58.761Z,13.63
2019-03-09T03:14:29.234Z,14.20
2019-03-09T03:16:59.853Z,13.57
2019-03-09T03:19:30.379Z,14.07
2019-03-09T03:22:01.307Z,14.27
2019-03-09T03:24:31.800Z,13.17
2019-03-09T03:27:02.202Z,13.20
2019-03-09T03:29:32.683Z,12.63
2019-03-09T03:32:03.220Z,13.77
2019-03-09T03:34:33.837Z,13.97
2019-03-09T03:37:04.296Z,13.27
2019-03-09T03:39:34.890Z,13.83
2019-03-09T03:42:05.483Z,13.87
2019-03-09T03:44:44.932Z,13.63
2019-03-09T03:47:18.294Z,14.10
2019-03-09T03:49:48.680Z,14.57
2019-03-09T03:52:19.267Z,13.50
2019-03-09T03:54:49.704Z,13.37
2019-03-09T03:57:20.087Z,13.80
2019-03-09T03:59:50.724Z,13.37
2019-03-09T04:02:21.449Z,14.03
2019-03-09T04:04:51.915Z,13.40
2019-03-09T04:07:22.479Z,13.43
2019-03-09T04:09:53.039Z,14.10
2019-03-09T04:12:23.678Z,13.63
2019-03-09T04:14:54.203Z,13.03
2019-03-09T04:17:24.809Z,14.03
2019-03-09T04:19:55.209Z,13.80
2019-03-09T04:22:25.778Z,12.60
2019-03-09T04:24:56.319Z,13.50
2019-03-09T04:27:26.829Z,13.43
2019-03-09T04:29:57.387Z,13.77
2019-03-09T04:32:27.955Z,13.27
2019-03-09T04:34:58.520Z,13.40
2019-03-09T04:37:28.938Z,13.10
2019-03-09T04:39:59.494Z,12.50
2019-03-09T04:42:29.789Z,13.20
2019-03-09T04:45:00.292Z,13.17
2019-03-09T04:47:31.013Z,12.63
2019-03-09T04:50:01.553Z,13.10
2019-03-09T04:52:31.940Z,13.90
2019-03-09T04:55:02.614Z,13.00
2019-03-09T04:57:33.639Z,13.00
2019-03-09T05:00:04.310Z,13.37
2019-03-09T05:02:34.877Z,13.13
2019-03-09T05:05:06.632Z,13.87
2019-03-09T05:07:47.606Z,12.90
2019-03-09T05:10:31.151Z,13.27
2019-03-09T05:13:07.195Z,13.00
2019-03-09T05:15:37.697Z,13.30
2019-03-09T05:18:08.175Z,13.30
2019-03-09T05:20:38.777Z,13.63
2019-03-09T05:23:09.387Z,14.13
2019-03-09T05:25:39.914Z,13.23
2019-03-09T05:28:10.366Z,13.80
2019-03-09T05:30:44.006Z,13.07
2019-03-09T05:33:14.708Z,13.37
2019-03-09T05:35:45.303Z,14.00
2019-03-09T05:38:15.939Z,13.20
2019-03-09T05:40:47.157Z,13.03
2019-03-09T05:43:17.777Z,13.23
2019-03-09T05:45:51.826Z,12.67
2019-03-09T05:48:22.473Z,11.87
2019-03-09T05:50:53.087Z,13.10
2019-03-09T05:53:24.442Z,11.70
2019-03-09T05:55:55.267Z,11.30
2019-03-09T05:58:25.773Z,11.37
2019-03-09T06:00:56.352Z,11.23
2019-03-09T06:03:26.914Z,10.20
2019-03-09T06:06:10.680Z,10.93
2019-03-09T06:08:41.523Z,10.90
2019-03-09T06:11:12.108Z,11.23
2019-03-09T06:13:42.793Z,10.27
2019-03-09T06:16:13.540Z,12.83
2019-03-09T06:18:44.142Z,11.57
2019-03-09T06:21:14.609Z,11.37
2019-03-09T06:23:45.385Z,9.40
2019-03-09T06:26:34.913Z,9.07
2019-03-09T06:29:05.469Z,8.63
2019-03-09T06:31:36.048Z,8.03
2019-03-09T06:34:06.633Z,8.37
2019-03-09T06:37:08.153Z,7.60
2019-03-09T06:39:49.304Z,7.10
2019-03-09T06:42:30.465Z,7.13
2019-03-09T06:45:01.509Z,6.77
2019-03-09T06:47:32.103Z,7.00
2019-03-09T06:50:02.874Z,6.33
2019-03-09T06:52:33.663Z,6.43
2019-03-09T06:55:04.487Z,6.27
2019-03-09T06:57:35.188Z,13.47
2019-03-09T07:00:30.661Z,6.50
2019-03-09T07:03:01.366Z,5.40
2019-03-09T07:05:32.193Z,6.53
2019-03-09T07:08:03.245Z,5.97
2019-03-09T07:10:34.423Z,5.33
2019-03-09T07:13:04.993Z,5.20
2019-03-09T07:15:39.083Z,4.80
2019-03-09T07:18:14.250Z,3.97
2019-03-09T07:20:44.818Z,4.63
2019-03-09T07:23:15.393Z,4.30
2019-03-09T07:25:46.158Z,4.17
2019-03-09T07:28:18.283Z,4.43
2019-03-09T07:30:48.839Z,4.17
2019-03-09T07:33:19.295Z,3.97
2019-03-09T07:35:49.766Z,3.90
2019-03-09T07:38:20.348Z,3.83
2019-03-09T07:40:50.798Z,3.20
2019-03-09T07:43:21.296Z,3.63
2019-03-09T07:45:51.877Z,3.33
2019-03-09T07:48:22.344Z,3.83
2019-03-09T07:50:52.987Z,4.10
2019-03-09T07:53:23.509Z,3.63
2019-03-09T07:55:54.173Z,6.47
2019-03-09T07:58:24.804Z,8.37
2019-03-09T08:00:55.413Z,5.10
2019-03-09T08:03:25.930Z,4.40
2019-03-09T08:05:56.445Z,4.00
2019-03-09T08:08:26.914Z,3.27
2019-03-09T08:10:57.502Z,3.20
2019-03-09T08:13:28.203Z,3.40
2019-03-09T08:15:59.251Z,3.17
2019-03-09T08:18:30.354Z,3.07
2019-03-09T08:21:01.009Z,3.95
2019-03-09T08:23:31.761Z,3.90
2019-03-09T08:26:02.458Z,3.60
2019-03-09T08:28:32.908Z,4.10
2019-03-09T08:31:03.352Z,4.00
2019-03-09T08:33:33.878Z,3.23
2019-03-09T08:36:04.557Z,4.08
2019-03-09T08:38:35.107Z,3.57
2019-03-09T08:41:05.790Z,4.37
2019-03-09T08:43:36.183Z,5.00
2019-03-09T08:46:06.861Z,4.30
2019-03-09T08:48:37.221Z,4.10
2019-03-09T08:51:07.910Z,3.67
2019-03-09T08:53:38.410Z,4.30
2019-03-09T08:56:09.022Z,2.20
2019-03-09T08:58:39.623Z,3.77
2019-03-09T09:01:10.058Z,3.67
2019-03-09T09:03:40.603Z,4.30
2019-03-09T09:06:11.037Z,5.90
2019-03-09T09:08:41.639Z,3.47
2019-03-09T09:11:12.211Z,3.60
2019-03-09T09:13:42.696Z,3.47
2019-03-09T09:16:13.334Z,3.00
2019-03-09T09:18:43.988Z,2.87
2019-03-09T09:21:14.546Z,2.70
2019-03-09T09:23:44.959Z,2.30
2019-03-09T09:26:15.414Z,3.37
2019-03-09T09:28:45.979Z,3.23
2019-03-09T09:31:16.502Z,4.67
2019-03-09T09:33:47.041Z,3.10
2019-03-09T09:36:17.635Z,3.53
2019-03-09T09:38:48.300Z,2.93
2019-03-09T09:41:19.004Z,3.07
2019-03-09T09:43:49.876Z,2.67
2019-03-09T09:46:20.531Z,3.17
2019-03-09T09:48:51.097Z,2.80
2019-03-09T09:51:21.625Z,2.53
2019-03-09T09:53:52.107Z,2.63
2019-03-09T09:56:22.495Z,3.13
2019-03-09T09:58:52.881Z,2.93
2019-03-09T10:01:23.475Z,4.60
2019-03-09T10:03:53.996Z,5.20
2019-03-09T10:06:24.347Z,4.93
2019-03-09T10:08:54.903Z,4.80
2019-03-09T10:11:25.389Z,4.70
2019-03-09T10:13:55.917Z,4.83
2019-03-09T10:16:26.509Z,3.17
2019-03-09T10:18:57.045Z,4.27
2019-03-09T10:21:27.532Z,2.73
2019-03-09T10:23:58.604Z,3.37
2019-03-09T10:26:28.999Z,2.00
2019-03-09T10:28:59.446Z,2.10
2019-03-09T10:31:30.000Z,2.27
2019-03-09T10:34:00.461Z,2.37
2019-03-09T10:36:30.952Z,2.00
2019-03-09T10:39:01.423Z,1.70
2019-03-09T10:41:31.959Z,2.00
2019-03-09T10:44:02.662Z,1.57
2019-03-09T10:46:33.260Z,2.03
2019-03-09T10:49:03.772Z,2.00
2019-03-09T10:51:34.267Z,2.17
2019-03-09T10:54:04.863Z,1.43
2019-03-09T10:56:35.277Z,2.20
2019-03-09T10:59:05.794Z,2.10
2019-03-09T11:01:36.312Z,2.40
2019-03-09T11:04:06.943Z,2.53
2019-03-09T11:06:37.473Z,2.63
2019-03-09T11:09:09.056Z,2.40
2019-03-09T11:11:39.711Z,2.13
2019-03-09T11:14:10.243Z,2.50
2019-03-09T11:16:40.876Z,1.87
2019-03-09T11:19:11.143Z,1.87
2019-03-09T11:21:42.284Z,1.93
2019-03-09T11:24:12.982Z,2.67
2019-03-09T11:26:43.613Z,2.60
2019-03-09T11:29:14.142Z,2.50
2019-03-09T11:31:44.693Z,2.63
2019-03-09T11:34:15.227Z,2.60
2019-03-09T11:36:46.037Z,2.70
2019-03-09T11:39:16.642Z,2.90
2019-03-09T11:41:47.096Z,3.50
2019-03-09T11:44:17.637Z,3.10
2019-03-09T11:46:48.163Z,2.80
2019-03-09T11:49:18.649Z,2.10
2019-03-09T11:51:49.027Z,2.50
2019-03-09T11:54:19.678Z,1.87
2019-03-09T11:56:50.301Z,2.33
2019-03-09T11:59:20.832Z,1.97
2019-03-09T12:01:51.402Z,1.60
2019-03-09T12:04:21.940Z,2.17
2019-03-09T12:06:52.447Z,1.57
2019-03-09T12:09:23.020Z,2.00
2019-03-09T12:12:04.201Z,2.00
2019-03-09T12:14:34.847Z,2.13
2019-03-09T12:17:12.350Z,2.10
2019-03-09T12:19:38.142Z,1.80
2019-03-09T12:22:08.650Z,1.80
2019-03-09T12:24:39.228Z,1.10
2019-03-09T12:27:09.846Z,1.40
2019-03-09T12:29:40.382Z,1.43
2019-03-09T12:32:10.979Z,1.50
2019-03-09T12:34:41.553Z,1.70
2019-03-09T12:37:12.092Z,1.70
2019-03-09T12:39:42.562Z,1.90
2019-03-09T12:42:12.978Z,1.50
2019-03-09T12:44:43.607Z,1.60
2019-03-09T12:47:14.287Z,1.63
2019-03-09T12:49:45.022Z,0.93
2019-03-09T12:52:15.548Z,1.60
2019-03-09T12:54:46.072Z,1.07
2019-03-09T12:57:16.604Z,1.30
2019-03-09T12:59:47.020Z,1.20
2019-03-09T13:02:17.524Z,1.43
2019-03-09T13:04:48.129Z,1.60
2019-03-09T13:07:18.721Z,21.23
2019-03-09T13:09:49.260Z,3.27
2019-03-09T13:12:19.828Z,1.50
2019-03-09T13:14:50.683Z,1.00
2019-03-09T13:17:21.193Z,1.17
2019-03-09T13:19:51.863Z,1.27
2019-03-09T13:22:22.266Z,2.00
2019-03-09T13:24:52.809Z,1.20
2019-03-09T13:27:23.829Z,1.30
2019-03-09T13:29:54.212Z,1.40
2019-03-09T13:32:24.867Z,1.60
2019-03-09T13:34:56.019Z,1.67
2019-03-09T13:37:26.604Z,1.20
2019-03-09T13:39:57.250Z,1.17
2019-03-09T13:42:31.477Z,1.17
2019-03-09T13:45:01.982Z,0.90
2019-03-09T13:47:32.594Z,1.33
2019-03-09T13:50:03.211Z,1.20
2019-03-09T13:52:33.908Z,1.27
2019-03-09T13:55:04.919Z,1.27
2019-03-09T13:57:35.394Z,1.33
2019-03-09T14:00:07.777Z,1.37
2019-03-09T14:02:38.372Z,1.30
2019-03-09T14:05:09.454Z,1.30
2019-03-09T14:07:40.079Z,1.20
2019-03-09T14:10:12.822Z,1.27
2019-03-09T14:12:43.491Z,1.63
2019-03-09T14:15:15.288Z,0.90
2019-03-09T14:17:46.173Z,1.20
2019-03-09T14:20:17.173Z,1.00
2019-03-09T14:22:48.033Z,1.30
2019-03-09T14:25:18.868Z,1.17
2019-03-09T14:27:49.393Z,1.50
2019-03-09T14:30:20.163Z,1.20
2019-03-09T14:32:50.957Z,1.20
2019-03-09T14:35:21.512Z,1.30
2019-03-09T14:37:52.058Z,1.20
2019-03-09T14:40:22.571Z,1.53
2019-03-09T14:42:53.058Z,1.50
2019-03-09T14:45:24.593Z,1.23
2019-03-09T14:47:55.277Z,1.37
2019-03-09T14:50:25.783Z,1.20
2019-03-09T14:52:56.293Z,1.40
2019-03-09T14:55:26.823Z,1.33
2019-03-09T14:57:57.653Z,1.50
2019-03-09T15:00:28.274Z,1.60
2019-03-09T15:02:58.933Z,1.30
2019-03-09T15:05:29.513Z,1.60
2019-03-09T15:07:59.987Z,1.40
2019-03-09T15:10:30.639Z,1.67
2019-03-09T15:13:01.127Z,1.73
2019-03-09T15:15:31.633Z,1.30
2019-03-09T15:18:02.263Z,1.83
2019-03-09T15:20:32.828Z,1.70
2019-03-09T15:23:04.223Z,1.80
2019-03-09T15:25:34.987Z,1.47
2019-03-09T15:28:10.107Z,1.00
2019-03-09T15:30:41.076Z,0.80
2019-03-09T15:33:11.853Z,0.70
2019-03-09T15:35:44.189Z,0.90
2019-03-09T15:38:14.980Z,1.00
2019-03-09T15:40:45.538Z,1.07
2019-03-09T15:43:15.979Z,0.90
2019-03-09T15:45:47.338Z,1.03
2019-03-09T15:48:18.065Z,1.03
2019-03-09T15:50:48.713Z,1.20
2019-03-09T15:53:20.244Z,1.20
2019-03-09T15:55:51.349Z,1.40
2019-03-09T15:58:24.237Z,1.50
2019-03-09T16:00:54.952Z,1.70
2019-03-09T16:03:26.265Z,1.40
2019-03-09T16:05:57.565Z,1.50
2019-03-09T16:08:28.182Z,1.73
2019-03-09T16:10:58.838Z,2.30
2019-03-09T16:13:29.745Z,2.43
2019-03-09T16:16:01.619Z,2.67
2019-03-09T16:18:33.362Z,2.37
2019-03-09T16:21:04.125Z,2.23
2019-03-09T16:23:37.488Z,3.10
2019-03-09T16:26:08.075Z,2.30
2019-03-09T16:28:39.844Z,2.50
2019-03-09T16:31:13.614Z,2.63
2019-03-09T16:33:44.308Z,2.60
2019-03-09T16:36:14.970Z,2.53
2019-03-09T16:38:51.492Z,2.63
2019-03-09T16:41:22.242Z,3.00
2019-03-09T16:43:54.004Z,2.33
2019-03-09T16:46:24.527Z,4.03
2019-03-09T16:48:55.103Z,4.50
2019-03-09T16:51:25.733Z,3.93
2019-03-09T16:53:56.353Z,3.77
2019-03-09T16:56:26.907Z,3.17
2019-03-09T16:58:57.562Z,2.57
2019-03-09T17:01:28.066Z,2.27
2019-03-09T17:03:58.983Z,2.50
2019-03-09T17:06:29.593Z,2.03
2019-03-09T17:09:00.189Z,2.40
2019-03-09T17:11:30.778Z,2.90
2019-03-09T17:14:01.273Z,3.07
2019-03-09T17:16:31.692Z,3.30
2019-03-09T17:19:02.334Z,4.67
2019-03-09T17:21:34.417Z,5.77
2019-03-09T17:24:05.137Z,5.33
2019-03-09T17:26:36.011Z,5.13
2019-03-09T17:29:06.699Z,5.07
2019-03-09T17:31:37.343Z,6.50
2019-03-09T17:34:08.483Z,6.47
2019-03-09T17:36:41.066Z,6.07
2019-03-09T17:39:15.956Z,6.23
2019-03-09T17:41:46.468Z,5.10
2019-03-09T17:44:20.569Z,5.07
2019-03-09T17:46:55.653Z,5.20
2019-03-09T17:49:27.621Z,4.57
2019-03-09T17:51:59.447Z,4.70
2019-03-09T17:54:35.358Z,4.47
2019-03-09T17:57:08.332Z,4.10
2019-03-09T17:59:43.117Z,3.60
2019-03-09T18:02:14.783Z,3.37
2019-03-09T18:04:47.830Z,3.33
2019-03-09T18:07:21.460Z,3.30
2019-03-09T18:09:52.210Z,2.63
2019-03-09T18:12:22.862Z,3.50
2019-03-09T18:14:53.592Z,3.60
2019-03-09T18:17:28.199Z,3.20
2019-03-09T18:20:03.378Z,3.27
2019-03-09T18:22:34.053Z,3.57
2019-03-09T18:25:14.504Z,3.50
2019-03-09T18:27:46.198Z,3.30
2019-03-09T18:30:21.069Z,3.33
2019-03-09T18:32:54.168Z,3.33
2019-03-09T18:35:28.211Z,3.80
2019-03-09T18:38:02.227Z,5.53
2019-03-09T18:40:33.007Z,6.50
2019-03-09T18:43:05.689Z,8.13
2019-03-09T18:45:40.513Z,10.97
2019-03-09T18:48:12.113Z,11.80
2019-03-09T18:50:44.329Z,9.47
2019-03-09T18:53:16.052Z,9.93
2019-03-09T18:55:58.930Z,7.00
2019-03-09T18:58:23.745Z,4.50
2019-03-09T19:00:54.337Z,3.20
2019-03-09T19:03:28.242Z,2.97
2019-03-09T19:06:04.065Z,3.63
2019-03-09T19:08:38.482Z,4.33
2019-03-09T19:11:12.003Z,4.97
2019-03-09T19:13:51.951Z,4.63
2019-03-09T19:16:23.689Z,5.30
2019-03-09T19:18:56.002Z,5.90
2019-03-09T19:21:27.802Z,5.70
2019-03-09T19:23:58.873Z,6.20
2019-03-09T19:26:29.538Z,6.40
2019-03-09T19:29:04.023Z,7.50
2019-03-09T19:31:35.681Z,7.53
2019-03-09T19:34:07.324Z,8.53
2019-03-09T19:36:40.543Z,7.03
2019-03-09T19:39:12.522Z,6.57
2019-03-09T19:41:47.838Z,7.93
2019-03-09T19:44:18.482Z,7.97
2019-03-09T19:46:52.348Z,7.33
2019-03-09T19:49:29.143Z,6.87
2019-03-09T19:52:00.642Z,7.17
2019-03-09T19:54:33.603Z,7.07
2019-03-09T19:57:05.427Z,8.17
2019-03-09T20:00:00.461Z,8.00
2019-03-09T20:02:32.473Z,9.53
2019-03-09T20:05:10.503Z,8.40
2019-03-09T20:08:14.258Z,9.17
2019-03-09T20:10:47.263Z,8.87
2019-03-09T20:13:18.302Z,7.37
2019-03-09T20:15:52.019Z,7.87
2019-03-09T20:18:25.708Z,8.33
2019-03-09T20:20:56.637Z,7.20
2019-03-09T20:23:27.247Z,6.53
2019-03-09T20:26:06.723Z,6.83
2019-03-09T20:28:43.093Z,6.63
2019-03-09T20:31:23.363Z,6.07
2019-03-09T20:33:53.876Z,5.20
2019-03-09T20:36:26.627Z,5.33
2019-03-09T20:38:57.542Z,5.07
2019-03-09T20:41:36.882Z,5.40
2019-03-09T20:44:22.247Z,5.27
2019-03-09T20:46:52.888Z,6.30
2019-03-09T20:49:29.880Z,4.30
2019-03-09T20:52:01.813Z,4.60
2019-03-09T20:54:32.421Z,5.10
2019-03-09T20:57:13.414Z,7.43
2019-03-09T20:59:48.797Z,10.83
2019-03-09T21:02:19.559Z,9.50
2019-03-09T21:04:51.477Z,10.33
2019-03-09T21:07:24.263Z,7.40
2019-03-09T21:09:54.940Z,3.83
2019-03-09T21:12:34.033Z,1.90
2019-03-09T21:15:06.090Z,2.10
2019-03-09T21:17:38.023Z,1.60
2019-03-09T21:20:11.803Z,2.27
2019-03-09T21:22:46.728Z,1.67
2019-03-09T21:25:19.659Z,2.10
2019-03-09T21:27:54.370Z,1.57
2019-03-09T21:30:25.197Z,2.40
2019-03-09T21:33:03.613Z,2.87
2019-03-09T21:35:34.200Z,3.07
2019-03-09T21:38:10.603Z,2.20
2019-03-09T21:40:42.891Z,1.30
2019-03-09T21:43:13.665Z,1.10
2019-03-09T21:45:44.328Z,1.10
2019-03-09T21:48:16.688Z,1.03
2019-03-09T21:50:49.617Z,1.20
2019-03-09T21:53:20.319Z,0.93
2019-03-09T21:55:51.043Z,1.40
2019-03-09T21:58:22.842Z,1.60
2019-03-09T22:00:53.626Z,1.30
2019-03-09T22:03:24.323Z,1.70
2019-03-09T22:06:05.281Z,1.70
2019-03-09T22:08:27.085Z,2.10
2019-03-09T22:10:57.668Z,2.00
2019-03-09T22:13:28.122Z,2.30
2019-03-09T22:15:58.693Z,3.40
2019-03-09T22:18:29.313Z,3.47
2019-03-09T22:20:59.867Z,3.67
2019-03-09T22:23:30.540Z,2.90
2019-03-09T22:26:01.099Z,2.60
2019-03-09T22:28:31.606Z,2.67
2019-03-09T22:31:02.168Z,2.20
2019-03-09T22:33:32.739Z,2.47
2019-03-09T22:36:03.197Z,2.20
2019-03-09T22:38:33.674Z,2.30
2019-03-09T22:41:04.556Z,2.53
2019-03-09T22:43:35.072Z,2.17
2019-03-09T22:46:05.544Z,2.80
2019-03-09T22:48:35.966Z,2.30
2019-03-09T22:51:06.453Z,2.20
2019-03-09T22:53:36.877Z,1.60
2019-03-09T22:56:07.512Z,1.83
2019-03-09T22:58:38.109Z,2.40
2019-03-09T23:01:08.835Z,1.83
2019-03-09T23:03:39.267Z,1.53
2019-03-09T23:06:09.773Z,1.60
2019-03-09T23:08:40.233Z,1.40
2019-03-09T23:11:10.608Z,1.50
2019-03-09T23:13:41.117Z,1.30
2019-03-09T23:16:11.530Z,1.60
2019-03-09T23:18:42.059Z,1.30
2019-03-09T23:21:12.573Z,1.97
2019-03-09T23:23:43.173Z,2.77
2019-03-09T23:26:13.793Z,3.60
2019-03-09T23:28:50.957Z,1.87
2019-03-09T23:31:21.533Z,1.90
2019-03-09T23:33:52.083Z,1.10
2019-03-09T23:36:22.583Z,1.50
2019-03-09T23:38:53.067Z,1.37
2019-03-09T23:41:23.683Z,1.10
2019-03-09T23:43:54.008Z,1.37
2019-03-09T23:46:24.723Z,1.00
2019-03-09T23:48:55.859Z,1.47
2019-03-09T23:51:27.143Z,1.03
2019-03-09T23:53:57.804Z,0.97
2019-03-09T23:56:28.418Z,0.80
2019-03-09T23:58:59.003Z,1.03
